Terminal Aerodrome Forecast
Issued by NWS Chicago, IL

Home | Current Version | Previous Version | Graphics & Text | Print | Product List | Glossary On
Versions: 1 2 3 4 5 6 7 8 9 10 11 12 13 14 15 16 17 18 19 20 21 22 23 24 25 26 27 28 29 30 31 32 33 34 35
000
FTUS43 KLOT 241100
TAFRFD
TAF
KRFD 241134Z 2412/2512 28007KT P6SM BKN030
     FM241800 26010KT P6SM SCT030
     FM250300 VRB03KT 6SM HZ BKN020
     FM250700 09006KT 5SM -SN BR BKN015
     FM250900 08010G18KT 2SM -SN BR OVC012
      TEMPO 2511/2512 3/4SM -SN BR OVC008=

USA.gov is the U.S. government's official web portal to all federal, state and local government web resources and services.